sensor_id;sensor_type;location;lat;lon;timestamp;noise_LAeq;noise_LA_min;noise_LA_max;noise_LA01;noise_LA95
71020;Laerm;58902;51.436;5.980;2022-08-21T00:00:11;39.01;32.14;49.42;;
71020;Laerm;58902;51.436;5.980;2022-08-21T00:00:25;33.92;32.53;36.84;;
71020;Laerm;58902;51.436;5.980;2022-08-21T00:00:35;33.97;32.42;35.81;;
71020;Laerm;58902;51.436;5.980;2022-08-21T00:00:47;34.14;32.56;36.15;;
71020;Laerm;58902;51.436;5.980;2022-08-21T00:00:58;33.88;32.29;35.24;;
71020;Laerm;58902;51.436;5.980;2022-08-21T00:01:11;33.67;32.06;35.02;;
71020;Laerm;58902;51.436;5.980;2022-08-21T00:01:24;33.51;31.91;34.82;;
71020;Laerm;58902;51.436;5.980;2022-08-21T00:01:35;33.36;32.23;36.11;;
71020;Laerm;58902;51.436;5.980;2022-08-21T00:01:49;33.59;31.43;39.24;;
71020;Laerm;58902;51.436;5.980;2022-08-21T00:01:59;32.65;31.21;34.27;;
71020;Laerm;58902;51.436;5.980;2022-08-21T00:02:13;32.24;31.11;33.49;;
71020;Laerm;58902;51.436;5.980;2022-08-21T00:02:25;32.30;29.15;35.77;;
71020;Laerm;58902;51.436;5.980;2022-08-21T00:02:36;31.43;29.87;33.05;;
71020;Laerm;58902;51.436;5.980;2022-08-21T00:02:48;31.99;30.10;35.07;;
71020;Laerm;58902;51.436;5.980;2022-08-21T00:03:00;31.69;29.85;34.00;;
71020;Laerm;58902;51.436;5.980;2022-08-21T00:03:15;32.63;30.39;34.93;;
71020;Laerm;58902;51.436;5.980;2022-08-21T00:03:25;30.88;29.37;32.62;;
71020;Laerm;58902;51.436;5.980;2022-08-21T00:03:35;31.01;29.55;32.78;;
71020;Laerm;58902;51.436;5.980;2022-08-21T00:03:46;33.49;30.78;38.33;;
71020;Laerm;58902;51.436;5.980;2022-08-21T00:03:56;38.27;30.99;42.98;;
71020;Laerm;58902;51.436;5.980;2022-08-21T00:04:07;30.75;28.92;33.61;;
71020;Laerm;58902;51.436;5.980;2022-08-21T00:04:18;30.29;29.15;31.62;;
71020;Laerm;58902;51.436;5.980;2022-08-21T00:04:29;30.41;29.22;33.08;;
71020;Laerm;58902;51.436;5.980;2022-08-21T00:04:39;31.30;28.96;36.53;;
71020;Laerm;58902;51.436;5.980;2022-08-21T00:04:50;30.42;29.21;31.95;;
71020;Laerm;58902;51.436;5.980;2022-08-21T00:05:04;30.75;29.39;32.64;;
71020;Laerm;58902;51.436;5.980;2022-08-21T00:05:17;31.17;29.37;33.14;;
71020;Laerm;58902;51.436;5.980;2022-08-21T00:05:28;31.76;30.15;33.20;;
71020;Laerm;58902;51.436;5.980;2022-08-21T00:05:40;32.53;30.16;34.75;;
71020;Laerm;58902;51.436;5.980;2022-08-21T00:05:50;33.44;31.96;34.99;;
71020;Laerm;58902;51.436;5.980;2022-08-21T00:06:02;32.10;29.80;34.92;;
71020;Laerm;58902;51.436;5.980;2022-08-21T00:06:13;30.70;28.88;32.56;;
71020;Laerm;58902;51.436;5.980;2022-08-21T00:06:23;29.63;28.48;32.07;;
71020;Laerm;58902;51.436;5.980;2022-08-21T00:06:34;29.92;28.67;32.32;;
71020;Laerm;58902;51.436;5.980;2022-08-21T00:06:44;31.60;29.36;34.10;;
71020;Laerm;58902;51.436;5.980;2022-08-21T00:06:55;35.70;31.39;40.02;;
71020;Laerm;58902;51.436;5.980;2022-08-21T00:07:08;30.33;28.42;33.59;;
71020;Laerm;58902;51.436;5.980;2022-08-21T00:07:19;29.37;28.20;30.58;;
71020;Laerm;58902;51.436;5.980;2022-08-21T00:07:29;29.46;28.24;32.06;;
71020;Laerm;58902;51.436;5.980;2022-08-21T00:07:39;29.36;28.20;30.52;;
71020;Laerm;58902;51.436;5.980;2022-08-21T00:07:50;29.29;28.10;30.68;;
71020;Laerm;58902;51.436;5.980;2022-08-21T00:08:01;30.03;28.92;31.91;;
71020;Laerm;58902;51.436;5.980;2022-08-21T00:08:12;29.87;28.37;35.16;;
71020;Laerm;58902;51.436;5.980;2022-08-21T00:08:23;29.57;28.05;34.03;;
71020;Laerm;58902;51.436;5.980;2022-08-21T00:08:33;29.51;28.29;34.00;;
71020;Laerm;58902;51.436;5.980;2022-08-21T00:08:43;30.27;28.59;36.52;;
71020;Laerm;58902;51.436;5.980;2022-08-21T00:08:54;32.36;29.19;45.81;;
71020;Laerm;58902;51.436;5.980;2022-08-21T00:09:05;31.38;30.21;32.96;;
71020;Laerm;58902;51.436;5.980;2022-08-21T00:09:16;30.80;29.34;32.86;;
71020;Laerm;58902;51.436;5.980;2022-08-21T00:09:27;32.27;29.55;43.21;;
71020;Laerm;58902;51.436;5.980;2022-08-21T00:09:37;32.87;30.99;42.67;;
71020;Laerm;58902;51.436;5.980;2022-08-21T00:09:48;33.30;30.68;44.45;;
71020;Laerm;58902;51.436;5.980;2022-08-21T00:09:58;32.72;30.79;34.14;;
71020;Laerm;58902;51.436;5.980;2022-08-21T00:10:09;31.92;29.98;35.48;;
71020;Laerm;58902;51.436;5.980;2022-08-21T00:10:20;37.15;30.23;48.85;;
71020;Laerm;58902;51.436;5.980;2022-08-21T00:10:30;35.26;31.60;48.91;;
71020;Laerm;58902;51.436;5.980;2022-08-21T00:10:41;36.98;33.03;41.58;;
71020;Laerm;58902;51.436;5.980;2022-08-21T00:10:52;43.15;34.46;51.04;;
71020;Laerm;58902;51.436;5.980;2022-08-21T00:11:03;37.48;30.90;42.98;;
71020;Laerm;58902;51.436;5.980;2022-08-21T00:11:14;31.32;29.61;34.92;;
71020;Laerm;58902;51.436;5.980;2022-08-21T00:11:24;31.49;29.67;43.37;;
71020;Laerm;58902;51.436;5.980;2022-08-21T00:11:37;31.39;30.15;33.26;;
71020;Laerm;58902;51.436;5.980;2022-08-21T00:11:48;32.41;29.78;35.75;;
71020;Laerm;58902;51.436;5.980;2022-08-21T00:11:58;33.67;32.02;35.82;;
71020;Laerm;58902;51.436;5.980;2022-08-21T00:12:09;34.02;31.38;36.37;;
71020;Laerm;58902;51.436;5.980;2022-08-21T00:12:19;32.72;30.67;34.75;;
71020;Laerm;58902;51.436;5.980;2022-08-21T00:12:30;33.08;31.27;35.88;;
71020;Laerm;58902;51.436;5.980;2022-08-21T00:12:41;37.22;31.92;43.05;;
71020;Laerm;58902;51.436;5.980;2022-08-21T00:12:52;39.23;35.60;42.69;;
71020;Laerm;58902;51.436;5.980;2022-08-21T00:13:03;41.46;35.23;45.69;;
71020;Laerm;58902;51.436;5.980;2022-08-21T00:13:14;37.39;34.16;40.71;;
71020;Laerm;58902;51.436;5.980;2022-08-21T00:13:25;36.69;34.62;40.83;;
71020;Laerm;58902;51.436;5.980;2022-08-21T00:13:35;35.52;33.57;36.59;;
71020;Laerm;58902;51.436;5.980;2022-08-21T00:13:48;35.26;31.89;39.62;;
71020;Laerm;58902;51.436;5.980;2022-08-21T00:13:58;33.64;30.51;43.36;;
71020;Laerm;58902;51.436;5.980;2022-08-21T00:14:09;35.29;32.00;40.55;;
71020;Laerm;58902;51.436;5.980;2022-08-21T00:14:20;33.53;29.56;42.10;;
71020;Laerm;58902;51.436;5.980;2022-08-21T00:14:30;30.71;29.11;34.95;;
71020;Laerm;58902;51.436;5.980;2022-08-21T00:14:41;31.32;29.70;43.12;;
71020;Laerm;58902;51.436;5.980;2022-08-21T00:14:51;30.75;29.32;32.03;;
71020;Laerm;58902;51.436;5.980;2022-08-21T00:15:03;30.43;29.03;32.36;;
71020;Laerm;58902;51.436;5.980;2022-08-21T00:15:15;30.31;29.03;32.10;;
71020;Laerm;58902;51.436;5.980;2022-08-21T00:15:27;30.29;29.02;32.31;;
71020;Laerm;58902;51.436;5.980;2022-08-21T00:15:38;30.44;28.94;31.98;;
71020;Laerm;58902;51.436;5.980;2022-08-21T00:15:49;30.65;29.13;32.50;;
71020;Laerm;58902;51.436;5.980;2022-08-21T00:15:59;30.44;29.22;31.68;;
71020;Laerm;58902;51.436;5.980;2022-08-21T00:16:10;30.52;29.03;37.34;;
71020;Laerm;58902;51.436;5.980;2022-08-21T00:16:21;30.58;29.16;33.13;;
71020;Laerm;58902;51.436;5.980;2022-08-21T00:16:32;30.51;29.38;32.23;;
71020;Laerm;58902;51.436;5.980;2022-08-21T00:16:42;30.84;29.59;32.41;;
71020;Laerm;58902;51.436;5.980;2022-08-21T00:16:52;30.94;29.43;32.04;;
71020;Laerm;58902;51.436;5.980;2022-08-21T00:17:03;31.18;29.77;32.40;;
71020;Laerm;58902;51.436;5.980;2022-08-21T00:17:14;31.16;29.80;32.47;;
71020;Laerm;58902;51.436;5.980;2022-08-21T00:17:24;31.20;29.97;33.37;;
71020;Laerm;58902;51.436;5.980;2022-08-21T00:17:35;31.09;29.52;34.19;;
71020;Laerm;58902;51.436;5.980;2022-08-21T00:17:45;31.34;29.91;32.87;;
71020;Laerm;58902;51.436;5.980;2022-08-21T00:17:56;31.31;29.16;33.40;;
71020;Laerm;58902;51.436;5.980;2022-08-21T00:18:07;30.33;28.72;31.77;;
71020;Laerm;58902;51.436;5.980;2022-08-21T00:18:18;30.19;28.95;31.40;;
71020;Laerm;58902;51.436;5.980;2022-08-21T00:18:29;30.35;28.96;32.62;;
71020;Laerm;58902;51.436;5.980;2022-08-21T00:18:39;30.34;29.13;31.95;;
71020;Laerm;58902;51.436;5.980;2022-08-21T00:18:50;30.18;28.57;33.07;;
71020;Laerm;58902;51.436;5.980;2022-08-21T00:19:01;30.44;28.58;34.97;;
71020;Laerm;58902;51.436;5.980;2022-08-21T00:19:11;29.88;28.43;37.50;;
71020;Laerm;58902;51.436;5.980;2022-08-21T00:19:22;29.82;28.25;31.21;;
71020;Laerm;58902;51.436;5.980;2022-08-21T00:19:35;29.82;28.43;35.34;;
71020;Laerm;58902;51.436;5.980;2022-08-21T00:19:45;29.66;28.24;31.09;;
71020;Laerm;58902;51.436;5.980;2022-08-21T00:19:56;29.60;28.40;31.07;;
71020;Laerm;58902;51.436;5.980;2022-08-21T00:20:07;29.84;28.49;35.57;;
71020;Laerm;58902;51.436;5.980;2022-08-21T00:20:19;29.77;28.49;31.63;;
71020;Laerm;58902;51.436;5.980;2022-08-21T00:20:29;30.22;28.65;32.33;;
71020;Laerm;58902;51.436;5.980;2022-08-21T00:20:40;30.30;28.88;33.47;;
71020;Laerm;58902;51.436;5.980;2022-08-21T00:20:51;30.36;29.18;31.93;;
71020;Laerm;58902;51.436;5.980;2022-08-21T00:21:02;30.55;28.88;32.33;;
71020;Laerm;58902;51.436;5.980;2022-08-21T00:21:13;33.57;30.49;38.27;;
71020;Laerm;58902;51.436;5.980;2022-08-21T00:21:23;33.97;31.23;38.61;;
71020;Laerm;58902;51.436;5.980;2022-08-21T00:21:35;34.82;31.43;39.34;;
71020;Laerm;58902;51.436;5.980;2022-08-21T00:21:45;35.35;33.18;38.72;;
71020;Laerm;58902;51.436;5.980;2022-08-21T00:21:56;35.72;34.19;38.27;;
71020;Laerm;58902;51.436;5.980;2022-08-21T00:22:06;41.57;35.80;47.47;;
71020;Laerm;58902;51.436;5.980;2022-08-21T00:22:16;34.14;31.06;39.85;;
71020;Laerm;58902;51.436;5.980;2022-08-21T00:22:27;31.96;30.23;33.58;;
71020;Laerm;58902;51.436;5.980;2022-08-21T00:22:37;31.81;30.05;33.51;;
71020;Laerm;58902;51.436;5.980;2022-08-21T00:22:48;33.29;31.71;35.61;;
71020;Laerm;58902;51.436;5.980;2022-08-21T00:22:58;33.19;32.05;34.26;;
71020;Laerm;58902;51.436;5.980;2022-08-21T00:23:09;34.88;30.65;46.83;;
71020;Laerm;58902;51.436;5.980;2022-08-21T00:23:19;33.35;30.56;41.57;;
71020;Laerm;58902;51.436;5.980;2022-08-21T00:23:30;31.58;30.11;33.40;;
71020;Laerm;58902;51.436;5.980;2022-08-21T00:23:42;32.56;30.63;34.43;;
71020;Laerm;58902;51.436;5.980;2022-08-21T00:23:53;33.69;32.65;35.22;;
71020;Laerm;58902;51.436;5.980;2022-08-21T00:24:03;34.01;32.54;35.42;;
71020;Laerm;58902;51.436;5.980;2022-08-21T00:24:14;34.87;30.15;39.71;;
71020;Laerm;58902;51.436;5.980;2022-08-21T00:24:25;33.81;32.41;35.73;;
71020;Laerm;58902;51.436;5.980;2022-08-21T00:24:35;33.83;32.36;34.96;;
71020;Laerm;58902;51.436;5.980;2022-08-21T00:24:46;33.84;32.65;35.51;;
71020;Laerm;58902;51.436;5.980;2022-08-21T00:24:56;34.13;32.35;35.60;;
71020;Laerm;58902;51.436;5.980;2022-08-21T00:25:08;34.84;32.61;50.93;;
71020;Laerm;58902;51.436;5.980;2022-08-21T00:25:19;33.91;32.75;35.05;;
71020;Laerm;58902;51.436;5.980;2022-08-21T00:25:30;34.21;32.91;35.54;;
71020;Laerm;58902;51.436;5.980;2022-08-21T00:25:41;34.41;33.18;36.30;;
71020;Laerm;58902;51.436;5.980;2022-08-21T00:25:51;34.25;32.89;35.50;;
71020;Laerm;58902;51.436;5.980;2022-08-21T00:26:02;34.39;33.03;35.51;;
71020;Laerm;58902;51.436;5.980;2022-08-21T00:26:13;34.40;32.84;36.54;;
71020;Laerm;58902;51.436;5.980;2022-08-21T00:26:23;35.26;32.85;38.20;;
71020;Laerm;58902;51.436;5.980;2022-08-21T00:26:34;40.74;35.68;46.08;;
71020;Laerm;58902;51.436;5.980;2022-08-21T00:26:44;36.35;33.79;39.45;;
71020;Laerm;58902;51.436;5.980;2022-08-21T00:26:55;34.47;33.16;35.74;;
71020;Laerm;58902;51.436;5.980;2022-08-21T00:27:05;35.57;33.39;37.83;;
71020;Laerm;58902;51.436;5.980;2022-08-21T00:27:15;34.42;32.94;36.92;;
71020;Laerm;58902;51.436;5.980;2022-08-21T00:27:26;34.22;33.02;35.46;;
71020;Laerm;58902;51.436;5.980;2022-08-21T00:27:39;34.60;30.65;39.42;;
71020;Laerm;58902;51.436;5.980;2022-08-21T00:27:49;33.07;30.01;38.71;;
71020;Laerm;58902;51.436;5.980;2022-08-21T00:28:00;32.68;29.32;37.69;;
71020;Laerm;58902;51.436;5.980;2022-08-21T00:28:12;32.96;29.60;42.82;;
71020;Laerm;58902;51.436;5.980;2022-08-21T00:28:22;31.90;30.05;33.63;;
71020;Laerm;58902;51.436;5.980;2022-08-21T00:28:32;32.43;31.11;34.02;;
71020;Laerm;58902;51.436;5.980;2022-08-21T00:28:43;32.20;30.96;33.45;;
71020;Laerm;58902;51.436;5.980;2022-08-21T00:28:55;31.53;30.07;32.67;;
71020;Laerm;58902;51.436;5.980;2022-08-21T00:29:06;30.96;29.52;32.34;;
71020;Laerm;58902;51.436;5.980;2022-08-21T00:29:16;30.83;28.99;37.02;;
71020;Laerm;58902;51.436;5.980;2022-08-21T00:29:26;30.85;29.49;36.25;;
71020;Laerm;58902;51.436;5.980;2022-08-21T00:29:37;30.71;29.31;33.43;;
71020;Laerm;58902;51.436;5.980;2022-08-21T00:29:47;30.64;29.11;32.35;;
71020;Laerm;58902;51.436;5.980;2022-08-21T00:29:57;30.38;28.67;32.29;;
71020;Laerm;58902;51.436;5.980;2022-08-21T00:30:08;30.29;29.02;32.32;;
71020;Laerm;58902;51.436;5.980;2022-08-21T00:30:20;30.60;28.60;33.41;;
71020;Laerm;58902;51.436;5.980;2022-08-21T00:30:30;31.83;29.28;37.01;;
71020;Laerm;58902;51.436;5.980;2022-08-21T00:30:41;32.62;29.35;38.91;;
71020;Laerm;58902;51.436;5.980;2022-08-21T00:30:51;32.62;31.28;33.65;;
71020;Laerm;58902;51.436;5.980;2022-08-21T00:31:02;34.01;31.86;36.14;;
71020;Laerm;58902;51.436;5.980;2022-08-21T00:31:16;38.59;34.54;48.45;;
71020;Laerm;58902;51.436;5.980;2022-08-21T00:31:27;35.07;33.61;36.66;;
71020;Laerm;58902;51.436;5.980;2022-08-21T00:31:38;34.00;32.20;35.68;;
71020;Laerm;58902;51.436;5.980;2022-08-21T00:31:48;32.92;31.65;34.14;;
71020;Laerm;58902;51.436;5.980;2022-08-21T00:31:59;33.12;31.84;34.53;;
71020;Laerm;58902;51.436;5.980;2022-08-21T00:32:10;35.51;32.52;39.11;;
71020;Laerm;58902;51.436;5.980;2022-08-21T00:32:24;34.94;32.93;37.72;;
71020;Laerm;58902;51.436;5.980;2022-08-21T00:32:35;33.35;32.01;34.71;;
71020;Laerm;58902;51.436;5.980;2022-08-21T00:32:49;33.75;31.14;38.50;;
71020;Laerm;58902;51.436;5.980;2022-08-21T00:33:00;33.76;32.49;34.97;;
71020;Laerm;58902;51.436;5.980;2022-08-21T00:33:10;33.65;32.40;35.72;;
71020;Laerm;58902;51.436;5.980;2022-08-21T00:33:21;32.86;30.23;37.26;;
71020;Laerm;58902;51.436;5.980;2022-08-21T00:33:31;31.75;30.50;33.35;;
71020;Laerm;58902;51.436;5.980;2022-08-21T00:33:42;31.68;30.36;33.12;;
71020;Laerm;58902;51.436;5.980;2022-08-21T00:33:52;31.50;29.65;33.40;;
71020;Laerm;58902;51.436;5.980;2022-08-21T00:34:02;31.46;30.09;32.90;;
71020;Laerm;58902;51.436;5.980;2022-08-21T00:34:13;32.23;30.56;33.68;;
71020;Laerm;58902;51.436;5.980;2022-08-21T00:34:24;30.73;29.11;34.14;;
71020;Laerm;58902;51.436;5.980;2022-08-21T00:34:34;30.33;29.01;32.97;;
71020;Laerm;58902;51.436;5.980;2022-08-21T00:34:44;30.14;28.82;31.87;;
71020;Laerm;58902;51.436;5.980;2022-08-21T00:34:55;30.21;28.94;31.63;;
71020;Laerm;58902;51.436;5.980;2022-08-21T00:35:07;30.29;29.13;31.76;;
71020;Laerm;58902;51.436;5.980;2022-08-21T00:35:20;30.76;28.63;34.07;;
71020;Laerm;58902;51.436;5.980;2022-08-21T00:35:32;30.46;29.22;32.84;;
71020;Laerm;58902;51.436;5.980;2022-08-21T00:35:43;30.77;29.13;32.63;;
71020;Laerm;58902;51.436;5.980;2022-08-21T00:35:53;30.88;28.91;32.55;;
71020;Laerm;58902;51.436;5.980;2022-08-21T00:36:04;33.09;29.42;46.75;;
71020;Laerm;58902;51.436;5.980;2022-08-21T00:36:15;35.56;30.32;37.12;;
71020;Laerm;58902;51.436;5.980;2022-08-21T00:36:25;33.38;30.02;39.78;;
71020;Laerm;58902;51.436;5.980;2022-08-21T00:36:36;31.19;29.90;32.93;;
71020;Laerm;58902;51.436;5.980;2022-08-21T00:36:46;31.78;29.98;34.34;;
71020;Laerm;58902;51.436;5.980;2022-08-21T00:36:56;33.72;30.21;38.56;;
71020;Laerm;58902;51.436;5.980;2022-08-21T00:37:07;33.24;32.17;34.49;;
71020;Laerm;58902;51.436;5.980;2022-08-21T00:37:18;33.89;31.99;38.38;;
71020;Laerm;58902;51.436;5.980;2022-08-21T00:37:28;32.83;31.39;34.67;;
71020;Laerm;58902;51.436;5.980;2022-08-21T00:37:39;32.79;31.73;34.02;;
71020;Laerm;58902;51.436;5.980;2022-08-21T00:37:49;33.36;32.04;34.67;;
71020;Laerm;58902;51.436;5.980;2022-08-21T00:38:00;33.81;32.31;34.99;;
71020;Laerm;58902;51.436;5.980;2022-08-21T00:38:11;33.89;32.68;35.09;;
71020;Laerm;58902;51.436;5.980;2022-08-21T00:38:22;33.90;32.32;35.24;;
71020;Laerm;58902;51.436;5.980;2022-08-21T00:38:32;34.03;32.71;35.60;;
71020;Laerm;58902;51.436;5.980;2022-08-21T00:38:43;34.81;33.21;36.73;;
71020;Laerm;58902;51.436;5.980;2022-08-21T00:38:53;33.74;32.69;35.11;;
71020;Laerm;58902;51.436;5.980;2022-08-21T00:39:04;34.46;33.01;37.73;;
71020;Laerm;58902;51.436;5.980;2022-08-21T00:39:15;38.11;33.41;43.80;;
71020;Laerm;58902;51.436;5.980;2022-08-21T00:39:25;33.72;32.14;35.15;;
71020;Laerm;58902;51.436;5.980;2022-08-21T00:39:36;33.85;32.10;47.07;;
71020;Laerm;58902;51.436;5.980;2022-08-21T00:39:46;33.44;31.69;34.47;;
71020;Laerm;58902;51.436;5.980;2022-08-21T00:39:57;33.22;31.73;34.51;;
71020;Laerm;58902;51.436;5.980;2022-08-21T00:40:09;32.87;31.47;34.20;;
71020;Laerm;58902;51.436;5.980;2022-08-21T00:40:22;33.94;30.62;40.85;;
71020;Laerm;58902;51.436;5.980;2022-08-21T00:40:34;32.63;29.30;37.02;;
71020;Laerm;58902;51.436;5.980;2022-08-21T00:40:50;33.36;29.59;43.12;;
71020;Laerm;58902;51.436;5.980;2022-08-21T00:41:02;32.08;30.24;33.61;;
71020;Laerm;58902;51.436;5.980;2022-08-21T00:41:13;31.83;30.53;33.63;;
71020;Laerm;58902;51.436;5.980;2022-08-21T00:41:23;31.45;30.07;32.89;;
71020;Laerm;58902;51.436;5.980;2022-08-21T00:41:34;31.10;29.73;33.30;;
71020;Laerm;58902;51.436;5.980;2022-08-21T00:41:45;30.49;29.27;32.34;;
71020;Laerm;58902;51.436;5.980;2022-08-21T00:41:55;30.55;29.21;32.24;;
71020;Laerm;58902;51.436;5.980;2022-08-21T00:42:06;30.85;29.36;32.44;;
71020;Laerm;58902;51.436;5.980;2022-08-21T00:42:17;31.35;29.71;32.44;;
71020;Laerm;58902;51.436;5.980;2022-08-21T00:42:28;31.50;30.10;33.29;;
71020;Laerm;58902;51.436;5.980;2022-08-21T00:42:40;31.15;29.79;33.07;;
71020;Laerm;58902;51.436;5.980;2022-08-21T00:42:51;31.05;29.80;32.47;;
71020;Laerm;58902;51.436;5.980;2022-08-21T00:43:02;30.98;29.49;32.42;;
71020;Laerm;58902;51.436;5.980;2022-08-21T00:43:14;31.20;29.72;32.77;;
71020;Laerm;58902;51.436;5.980;2022-08-21T00:43:26;31.59;30.56;33.25;;
71020;Laerm;58902;51.436;5.980;2022-08-21T00:43:38;31.54;29.46;38.98;;
71020;Laerm;58902;51.436;5.980;2022-08-21T00:43:49;30.36;29.07;31.68;;
71020;Laerm;58902;51.436;5.980;2022-08-21T00:44:00;30.20;28.95;31.56;;
71020;Laerm;58902;51.436;5.980;2022-08-21T00:44:11;29.92;28.26;32.29;;
71020;Laerm;58902;51.436;5.980;2022-08-21T00:44:22;29.85;28.68;31.28;;
71020;Laerm;58902;51.436;5.980;2022-08-21T00:44:32;31.21;29.35;34.72;;
71020;Laerm;58902;51.436;5.980;2022-08-21T00:44:43;31.32;29.11;35.21;;
71020;Laerm;58902;51.436;5.980;2022-08-21T00:44:54;31.89;29.58;36.57;;
71020;Laerm;58902;51.436;5.980;2022-08-21T00:45:06;31.72;29.59;38.27;;
71020;Laerm;58902;51.436;5.980;2022-08-21T00:45:18;30.64;29.49;32.03;;
71020;Laerm;58902;51.436;5.980;2022-08-21T00:45:28;30.96;29.36;33.97;;
71020;Laerm;58902;51.436;5.980;2022-08-21T00:45:40;31.06;28.83;35.87;;
71020;Laerm;58902;51.436;5.980;2022-08-21T00:45:51;30.08;28.52;32.37;;
71020;Laerm;58902;51.436;5.980;2022-08-21T00:46:01;29.69;28.50;31.00;;
71020;Laerm;58902;51.436;5.980;2022-08-21T00:46:12;29.59;28.37;31.88;;
71020;Laerm;58902;51.436;5.980;2022-08-21T00:46:22;29.49;28.50;30.54;;
71020;Laerm;58902;51.436;5.980;2022-08-21T00:46:33;29.57;28.18;32.30;;
71020;Laerm;58902;51.436;5.980;2022-08-21T00:46:44;29.58;28.37;31.85;;
71020;Laerm;58902;51.436;5.980;2022-08-21T00:46:54;29.52;28.22;30.83;;
71020;Laerm;58902;51.436;5.980;2022-08-21T00:47:04;29.53;28.32;32.03;;
71020;Laerm;58902;51.436;5.980;2022-08-21T00:47:15;29.50;28.32;30.87;;
71020;Laerm;58902;51.436;5.980;2022-08-21T00:47:28;29.97;28.29;33.85;;
71020;Laerm;58902;51.436;5.980;2022-08-21T00:47:38;31.39;28.50;34.30;;
71020;Laerm;58902;51.436;5.980;2022-08-21T00:47:49;29.48;28.36;31.20;;
71020;Laerm;58902;51.436;5.980;2022-08-21T00:48:00;29.70;28.24;31.22;;
71020;Laerm;58902;51.436;5.980;2022-08-21T00:48:10;29.99;28.82;31.77;;
71020;Laerm;58902;51.436;5.980;2022-08-21T00:48:21;30.08;28.80;31.76;;
71020;Laerm;58902;51.436;5.980;2022-08-21T00:48:32;32.06;28.98;35.83;;
71020;Laerm;58902;51.436;5.980;2022-08-21T00:48:42;35.25;34.37;36.98;;
71020;Laerm;58902;51.436;5.980;2022-08-21T00:48:53;35.11;33.92;36.10;;
71020;Laerm;58902;51.436;5.980;2022-08-21T00:49:03;33.08;29.85;35.93;;
71020;Laerm;58902;51.436;5.980;2022-08-21T00:49:14;33.65;32.23;35.25;;
71020;Laerm;58902;51.436;5.980;2022-08-21T00:49:24;34.04;31.90;36.60;;
71020;Laerm;58902;51.436;5.980;2022-08-21T00:49:35;35.01;30.77;41.72;;
71020;Laerm;58902;51.436;5.980;2022-08-21T00:49:45;31.88;30.53;33.22;;
71020;Laerm;58902;51.436;5.980;2022-08-21T00:49:56;32.00;30.80;33.72;;
71020;Laerm;58902;51.436;5.980;2022-08-21T00:50:06;34.05;30.12;39.55;;
71020;Laerm;58902;51.436;5.980;2022-08-21T00:50:18;33.18;31.63;35.15;;
71020;Laerm;58902;51.436;5.980;2022-08-21T00:50:29;33.80;31.47;38.75;;
71020;Laerm;58902;51.436;5.980;2022-08-21T00:50:46;33.57;32.29;35.40;;
71020;Laerm;58902;51.436;5.980;2022-08-21T00:51:04;32.75;31.24;33.79;;
71020;Laerm;58902;51.436;5.980;2022-08-21T00:51:17;32.54;31.45;34.06;;
71020;Laerm;58902;51.436;5.980;2022-08-21T00:51:54;33.66;32.40;34.79;;
71020;Laerm;58902;51.436;5.980;2022-08-21T00:52:06;33.98;32.78;35.07;;
71020;Laerm;58902;51.436;5.980;2022-08-21T00:52:18;34.04;32.66;35.43;;
71020;Laerm;58902;51.436;5.980;2022-08-21T00:52:29;34.24;32.63;35.99;;
71020;Laerm;58902;51.436;5.980;2022-08-21T00:52:41;34.46;33.08;36.11;;
71020;Laerm;58902;51.436;5.980;2022-08-21T00:52:52;34.75;33.39;37.22;;
71020;Laerm;58902;51.436;5.980;2022-08-21T00:53:02;34.73;33.06;36.58;;
71020;Laerm;58902;51.436;5.980;2022-08-21T00:53:15;34.88;33.09;37.21;;
71020;Laerm;58902;51.436;5.980;2022-08-21T00:53:26;34.47;32.43;36.28;;
71020;Laerm;58902;51.436;5.980;2022-08-21T00:53:37;34.21;32.67;35.64;;
71020;Laerm;58902;51.436;5.980;2022-08-21T00:53:50;33.68;32.31;35.57;;
71020;Laerm;58902;51.436;5.980;2022-08-21T00:54:03;34.04;30.55;40.61;;
71020;Laerm;58902;51.436;5.980;2022-08-21T00:54:13;32.84;29.47;37.01;;
71020;Laerm;58902;51.436;5.980;2022-08-21T00:54:25;32.92;29.45;40.77;;
71020;Laerm;58902;51.436;5.980;2022-08-21T00:54:36;31.12;29.43;34.95;;
71020;Laerm;58902;51.436;5.980;2022-08-21T00:54:49;31.58;30.28;32.96;;
71020;Laerm;58902;51.436;5.980;2022-08-21T00:54:59;30.96;29.75;32.27;;
71020;Laerm;58902;51.436;5.980;2022-08-21T00:55:10;31.10;29.27;32.33;;
71020;Laerm;58902;51.436;5.980;2022-08-21T00:55:21;31.11;29.39;37.28;;
71020;Laerm;58902;51.436;5.980;2022-08-21T00:55:33;31.12;29.43;38.86;;
71020;Laerm;58902;51.436;5.980;2022-08-21T00:55:45;30.78;29.26;36.53;;
71020;Laerm;58902;51.436;5.980;2022-08-21T00:55:56;30.32;29.31;32.46;;
71020;Laerm;58902;51.436;5.980;2022-08-21T00:56:07;30.24;29.13;32.05;;
71020;Laerm;58902;51.436;5.980;2022-08-21T00:56:19;30.46;29.24;31.78;;
71020;Laerm;58902;51.436;5.980;2022-08-21T00:56:30;30.68;29.39;32.42;;
71020;Laerm;58902;51.436;5.980;2022-08-21T00:56:40;32.15;29.24;47.43;;
71020;Laerm;58902;51.436;5.980;2022-08-21T00:56:52;38.07;29.62;56.59;;
71020;Laerm;58902;51.436;5.980;2022-08-21T00:57:05;38.82;29.55;61.20;;
71020;Laerm;58902;51.436;5.980;2022-08-21T00:57:19;38.95;29.64;61.38;;
71020;Laerm;58902;51.436;5.980;2022-08-21T00:57:34;39.44;29.63;61.03;;
71020;Laerm;58902;51.436;5.980;2022-08-21T00:57:47;32.73;29.53;51.75;;
71020;Laerm;58902;51.436;5.980;2022-08-21T00:58:00;34.93;29.61;52.29;;
71020;Laerm;58902;51.436;5.980;2022-08-21T00:58:11;31.27;29.35;38.80;;
71020;Laerm;58902;51.436;5.980;2022-08-21T00:58:22;37.53;29.82;59.45;;
71020;Laerm;58902;51.436;5.980;2022-08-21T00:58:33;31.21;29.50;43.83;;
71020;Laerm;58902;51.436;5.980;2022-08-21T00:58:45;32.65;29.56;48.34;;
71020;Laerm;58902;51.436;5.980;2022-08-21T00:58:56;32.08;30.23;35.72;;
71020;Laerm;58902;51.436;5.980;2022-08-21T00:59:08;30.75;28.99;32.25;;
71020;Laerm;58902;51.436;5.980;2022-08-21T00:59:19;30.83;29.09;33.24;;
71020;Laerm;58902;51.436;5.980;2022-08-21T00:59:31;32.59;29.37;41.32;;
71020;Laerm;58902;51.436;5.980;2022-08-21T00:59:43;30.32;28.93;32.44;;
71020;Laerm;58902;51.436;5.980;2022-08-21T00:59:56;30.17;28.53;33.01;;
71020;Laerm;58902;51.436;5.980;2022-08-21T01:00:08;37.48;28.62;48.88;;
71020;Laerm;58902;51.436;5.980;2022-08-21T01:00:22;38.81;29.61;48.57;;
71020;Laerm;58902;51.436;5.980;2022-08-21T01:00:34;32.50;29.14;39.15;;
71020;Laerm;58902;51.436;5.980;2022-08-21T01:00:47;32.30;30.00;36.79;;
71020;Laerm;58902;51.436;5.980;2022-08-21T01:00:58;32.24;29.74;38.71;;
71020;Laerm;58902;51.436;5.980;2022-08-21T01:01:09;31.40;29.83;34.73;;
71020;Laerm;58902;51.436;5.980;2022-08-21T01:01:19;31.93;29.51;37.64;;
71020;Laerm;58902;51.436;5.980;2022-08-21T01:01:30;30.79;29.68;33.03;;
71020;Laerm;58902;51.436;5.980;2022-08-21T01:01:40;30.66;29.18;32.59;;
71020;Laerm;58902;51.436;5.980;2022-08-21T01:01:51;31.81;29.41;33.55;;
71020;Laerm;58902;51.436;5.980;2022-08-21T01:02:03;32.48;31.07;33.69;;
71020;Laerm;58902;51.436;5.980;2022-08-21T01:02:15;31.65;29.32;33.86;;
71020;Laerm;58902;51.436;5.980;2022-08-21T01:02:26;32.15;29.39;34.18;;
71020;Laerm;58902;51.436;5.980;2022-08-21T01:02:36;33.83;32.26;35.26;;
71020;Laerm;58902;51.436;5.980;2022-08-21T01:02:47;33.04;29.95;35.20;;